Airfield :
LOGIN :

Register | Disclaimer

   EN    FR    IT 

 










Legend :    VFR   Marginal VFR   IFR   Intensive IFR   Very Intensive IFR
Visi :
Ceiling :
>= 8 km
>= 3000ft
5 to 8 km
1000 to 3000 ft
1500m to 5 km
500 to 1000 ft
800 to 1500m
200 to 500 ft
< 800m
< 200 ft
Symbols :   Thunderstorms  Fog  Heavy snow  Heavy precipitations  Wind > 20 kt
SIGMETs :     Misc.  Thunderstorms  Icing  Turbulence  Mountain Waves  Volcanic Ashes







- Airport Elevation : 1213 ft
- IATA code : SCQ


LEST - Santiago de Compostela

CURRENT METAR :
  • 251353Z 26010KT 210V310 9999 SCT010 SCT020TCU BKN030 08/06 Q1007 RESHRA WS ALL RWY TEMPO 3000 SHRA TS SCT020CB

EXPIRED METARs :
  • 251338Z 27008G20KT 180V340 6000 SHRA FEW007 BKN010 SCT015CB 07/06 Q1007 WS ALL RWY TEMPO 3000 SHRA TS
  • 251330Z 27010G20KT 210V320 6000 SHRA FEW007 SCT015CB BKN020 07/06 Q1006 WS ALL RWY TEMPO 3000 SHRA TS
  • 251300Z 26013KT 210V300 8000 SCT010 SCT015CB BKN030 06/05 Q1006 RETS RESHRA TEMPO 3000 SHRA TS
  • 251246Z 26020G35KT 210V300 4000 TS SHRA SCT010 BKN014 SCT020CB 07/06 Q1006 TEMPO NSW
  • 251240Z 25022KT 210V280 6000 TS SHRA SCT015CB BKN017 08/06 Q1005 TEMPO 3000
  • 251207Z 25014G29KT 210V290 5000 SHRA BKN015 SCT020TCU 09/06 Q1005 TEMPO 3000 SHRA TS SCT020CB
  • 251130Z 23014G28KT 180V290 9999 SCT012TCU BKN030 09/07 Q1005 RESHRA TEMPO 3000 SHRA TS SCT020CB
  • 251109Z 26011G22KT 210V300 9999 SCT012CB BKN020 07/05 Q1005 RESHRA TEMPO 3000 SHRA TS SCT020CB
  • 251104Z 28011G22KT 240V330 8000 SHRA VCTS SCT012CB BKN020 06/05 Q1005 TEMPO 3000 SHRA TS SCT020CB

TAF TAF LEST
Valid from the 25 at 12:00 until the 26 at 12:00 UTC


251100Z 2512/2612 23014KT 9999 SCT020 BKN035 TX11/2514Z TN07/2606Z
TEMPO 2512/2522 27015G25KT 3000 SHRA SCT020TCU
PROB40
TEMPO 2512/2519 24020G32KT 1800 +SHRA TS BKN010 BKN020CB
PROB30
TEMPO 2512/2516 24025G43KT
BECMG 2522/2602 29006KT
PROB40
TEMPO 2522/2606 RA SHRA SCT030TCU
No reported NOTAMs for that airfield.
3 SIGMETs reported for the Madrid FIR (LECM) :
 
Embedded thunderstorms
LECM SIGMET 4 VALID 251210/251400 LEVA
LECM MADRID FIR/UIR EMBD TS OBS AT 1210Z WI N4057 W00336 - N4043 W00258 - N4210 W00018 - N4236 W00009 - N4057 W00336 TOP FL250 MOV NE NC=
Embedded thunderstorms
LECM SIGMET 3 VALID 251142/251400 LEVA
LECM MADRID FIR/UIR EMBD TS OBS AT 1142Z WI N4214 W01024 - N4307 W01035 - N4447 W00736 - N4420 W00705 - N4304 W00820 - N42 W00739 - N4214 W01024 TOP FL300 MOV E NC=
Severe turbulence
LECM SIGMET 2 VALID 251100/251500 LEVA
LECM MADRID FIR SEV TURB FCST WI N4316 W00717 - N4206 W00702 - N4153 W00143 - N4255 W00143 - N4316 W00717 SFC/FL090 STNR NC=



MET'MAP, your aeronautical weather chart ! - Copyright ORBIFLY December 2007 - Disclaimer

ORBIFLY MET'MAP TEAM :

Programming & Development : Alexandra Zaïnal
Concept & Development : Baudouin d'Aumeries
Co-Development & Prog : Marc-Olivier Méhu
Technical & hardware support : Manuel Goepfert

Contact : metmap@orbifly.com




SOURCES & CREDITS :

   NOAA